createdAt,value
2023-03-23T15:58:15.416Z,3.43
2023-03-23T16:00:44.733Z,3.37
2023-03-23T16:03:23.517Z,3.31
2023-03-23T16:05:51.176Z,3.35
2023-03-23T16:08:17.819Z,3.30
2023-03-23T16:10:44.569Z,3.30
2023-03-23T16:13:11.456Z,3.15
2023-03-23T16:15:38.210Z,3.29
2023-03-23T16:18:04.907Z,3.20
2023-03-23T16:20:31.745Z,3.12
2023-03-23T16:22:58.624Z,3.05
2023-03-23T16:25:25.234Z,3.18
2023-03-23T16:27:52.786Z,3.34
2023-03-23T16:30:23.112Z,3.40
2023-03-23T16:32:53.620Z,3.60
2023-03-23T16:35:21.672Z,3.08
2023-03-23T16:38:07.466Z,3.41
2023-03-23T16:40:38.353Z,3.57
2023-03-23T16:43:08.643Z,4.42
2023-03-23T16:45:37.969Z,5.15
2023-03-23T16:48:05.682Z,3.58
2023-03-23T16:50:33.327Z,3.42
2023-03-23T16:53:00.173Z,3.86
2023-03-23T16:55:27.191Z,4.00
2023-03-23T16:58:05.325Z,3.77
2023-03-23T17:00:40.930Z,3.71
2023-03-23T17:03:08.240Z,3.79
2023-03-23T17:05:36.882Z,3.70
2023-03-23T17:08:04.666Z,3.96
2023-03-23T17:10:31.603Z,3.84
2023-03-23T17:12:59.275Z,4.03
2023-03-23T17:15:25.927Z,3.73
2023-03-23T17:17:53.512Z,3.58
2023-03-23T17:20:20.681Z,3.45
2023-03-23T17:22:47.938Z,3.72
2023-03-23T17:25:14.699Z,3.48
2023-03-23T17:27:41.508Z,3.67
2023-03-23T17:30:09.341Z,3.55
2023-03-23T17:32:36.068Z,3.57
2023-03-23T17:35:04.574Z,3.77
2023-03-23T17:37:32.025Z,3.56
2023-03-23T17:39:58.654Z,3.58
2023-03-23T17:42:25.559Z,4.15
2023-03-23T17:44:52.181Z,3.47
2023-03-23T17:47:18.849Z,3.61
2023-03-23T17:49:45.564Z,3.88
2023-03-23T17:52:13.434Z,4.11
2023-03-23T17:54:40.064Z,4.02
2023-03-23T17:57:06.722Z,4.13
2023-03-23T17:59:33.390Z,4.56
2023-03-23T18:02:00.119Z,5.13
2023-03-23T18:04:26.827Z,4.61
2023-03-23T18:06:58.156Z,3.95
2023-03-23T18:09:25.845Z,3.66
2023-03-23T18:11:53.249Z,3.72
2023-03-23T18:14:20.465Z,3.93
2023-03-23T18:16:47.722Z,4.24
2023-03-23T18:19:14.480Z,4.78
2023-03-23T18:21:42.537Z,4.74
2023-03-23T18:24:10.191Z,4.54
2023-03-23T18:26:37.344Z,4.96
2023-03-23T18:29:04.324Z,7.13
2023-03-23T18:31:31.123Z,6.46
2023-03-23T18:33:57.752Z,8.40
2023-03-23T18:36:27.347Z,7.89
2023-03-23T18:38:56.963Z,7.97
2023-03-23T18:41:23.725Z,7.33
2023-03-23T18:43:50.609Z,5.82
2023-03-23T18:46:18.165Z,5.60
2023-03-23T18:48:44.845Z,11.55
2023-03-23T18:51:12.021Z,17.80
2023-03-23T18:53:38.775Z,11.24
2023-03-23T18:56:14.008Z,13.54
2023-03-23T18:58:40.660Z,11.15
2023-03-23T19:01:12.928Z,10.25
2023-03-23T19:03:39.886Z,10.85
2023-03-23T19:06:08.306Z,15.70
2023-03-23T19:08:34.978Z,18.71
2023-03-23T19:11:08.920Z,18.79
2023-03-23T19:13:35.684Z,13.24
2023-03-23T19:16:04.164Z,9.16
2023-03-23T19:18:30.849Z,6.81
2023-03-23T19:23:30.858Z,6.81
2023-03-23T19:25:57.801Z,5.67
2023-03-23T19:30:57.754Z,5.25
2023-03-23T19:33:26.081Z,10.46
2023-03-23T19:36:05.619Z,6.85
2023-03-23T19:38:35.683Z,5.86
2023-03-23T19:41:04.071Z,5.09
2023-03-23T19:43:32.141Z,3.96
2023-03-23T19:45:58.764Z,3.40
2023-03-23T19:48:25.560Z,3.25
2023-03-23T19:50:52.689Z,3.41
2023-03-23T19:53:19.901Z,3.62
2023-03-23T19:55:46.662Z,5.48
2023-03-23T19:58:15.730Z,5.82
2023-03-23T20:00:44.332Z,7.68
2023-03-23T20:03:11.353Z,9.94
2023-03-23T20:05:38.343Z,5.74
2023-03-23T20:08:05.283Z,5.51
2023-03-23T20:10:32.402Z,5.25
2023-03-23T20:12:59.036Z,5.18
2023-03-23T20:15:25.699Z,7.11
2023-03-23T20:17:53.093Z,7.68
2023-03-23T20:20:20.194Z,4.31
2023-03-23T20:22:49.330Z,4.05
2023-03-23T20:25:17.793Z,3.76
2023-03-23T20:27:45.327Z,3.47
2023-03-23T20:30:13.212Z,4.21
2023-03-23T20:32:40.493Z,8.30
2023-03-23T20:35:10.950Z,7.02
2023-03-23T20:37:39.688Z,5.45
2023-03-23T20:40:09.936Z,4.23
2023-03-23T20:42:37.525Z,3.94
2023-03-23T20:45:06.056Z,3.42
2023-03-23T20:47:32.782Z,4.47
2023-03-23T20:49:59.480Z,4.11
2023-03-23T20:52:26.661Z,4.05
2023-03-23T20:54:56.879Z,5.02
2023-03-23T20:57:24.147Z,7.31
2023-03-23T20:59:51.662Z,6.27
2023-03-23T21:02:19.858Z,5.60
2023-03-23T21:04:48.297Z,4.96
2023-03-23T21:07:17.984Z,4.41
2023-03-23T21:09:44.736Z,4.36
2023-03-23T21:12:12.780Z,4.27
2023-03-23T21:14:40.009Z,3.85
2023-03-23T21:17:07.864Z,3.82
2023-03-23T21:19:53.224Z,3.73
2023-03-23T21:22:40.153Z,3.67
2023-03-23T21:25:06.815Z,3.85
2023-03-23T21:27:35.111Z,3.89
2023-03-23T21:30:03.183Z,3.86
2023-03-23T21:32:29.963Z,4.07
2023-03-23T21:34:56.630Z,4.07
2023-03-23T21:37:23.361Z,4.20
2023-03-23T21:39:51.025Z,4.11
2023-03-23T21:42:17.695Z,4.26
2023-03-23T21:44:44.329Z,4.33
2023-03-23T21:47:10.928Z,4.28
2023-03-23T21:49:40.701Z,4.62
2023-03-23T21:52:08.068Z,4.88
2023-03-23T21:54:34.964Z,4.56
2023-03-23T21:57:01.668Z,4.83
2023-03-23T21:59:28.507Z,4.24
2023-03-23T22:01:55.224Z,4.49
2023-03-23T22:04:21.848Z,4.43
2023-03-23T22:06:48.445Z,4.62
2023-03-23T22:09:15.644Z,4.14
2023-03-23T22:11:42.805Z,4.18
2023-03-23T22:14:09.452Z,4.49
2023-03-23T22:16:36.208Z,4.40
2023-03-23T22:19:03.127Z,4.52
2023-03-23T22:21:30.512Z,4.50
2023-03-23T22:23:59.668Z,4.40
2023-03-23T22:26:27.946Z,4.30
2023-03-23T22:28:55.269Z,4.41
2023-03-23T22:31:24.578Z,4.34
2023-03-23T22:33:53.445Z,4.07
2023-03-23T22:36:25.542Z,4.23
2023-03-23T22:38:52.388Z,4.38
2023-03-23T22:41:32.532Z,4.64
2023-03-23T22:43:59.290Z,4.46
2023-03-23T22:46:26.652Z,4.34
2023-03-23T22:48:53.802Z,4.53
2023-03-23T22:51:20.937Z,4.87
2023-03-23T22:53:48.605Z,5.34
2023-03-23T22:56:16.176Z,5.72
2023-03-23T22:58:43.734Z,6.29
2023-03-23T23:01:16.742Z,6.54
2023-03-23T23:03:43.810Z,6.74
2023-03-23T23:06:13.419Z,6.71
2023-03-23T23:08:40.086Z,6.39
2023-03-23T23:11:07.321Z,6.42
2023-03-23T23:13:34.025Z,6.38
2023-03-23T23:16:02.173Z,6.65
2023-03-23T23:18:30.446Z,7.29
2023-03-23T23:21:01.000Z,7.71
2023-03-23T23:23:28.529Z,7.45
2023-03-23T23:25:55.373Z,7.65
2023-03-23T23:28:22.253Z,7.79
2023-03-23T23:30:50.222Z,7.87
2023-03-23T23:33:16.826Z,8.04
2023-03-23T23:35:43.505Z,8.32
2023-03-23T23:38:10.652Z,9.15
2023-03-23T23:40:46.636Z,9.26
2023-03-23T23:43:16.239Z,9.90
2023-03-23T23:45:43.552Z,9.81
2023-03-23T23:48:10.711Z,10.24
2023-03-23T23:50:37.370Z,10.86
2023-03-23T23:53:04.516Z,11.22
2023-03-23T23:55:31.166Z,10.55
2023-03-23T23:57:57.793Z,11.10
